createdAt,value
2023-03-29T00:01:00.859Z,53.17
2023-03-29T00:06:03.662Z,52.62
2023-03-29T00:11:06.179Z,52.30
2023-03-29T00:16:08.919Z,51.39
2023-03-29T00:21:11.628Z,52.28
2023-03-29T00:26:13.811Z,53.73
2023-03-29T00:31:17.553Z,55.25
2023-03-29T00:36:19.974Z,56.19
2023-03-29T00:41:22.729Z,57.75
2023-03-29T00:46:26.543Z,58.55
2023-03-29T00:51:36.156Z,59.16
2023-03-29T00:56:41.632Z,59.35
2023-03-29T01:01:50.575Z,60.02
2023-03-29T01:07:00.626Z,59.59
2023-03-29T01:12:09.587Z,60.68
2023-03-29T01:17:12.947Z,60.26
2023-03-29T01:22:28.430Z,60.85
2023-03-29T01:27:43.988Z,61.25
2023-03-29T01:32:59.287Z,60.80
2023-03-29T01:38:35.860Z,60.87
2023-03-29T01:43:37.988Z,62.04
2023-03-29T01:49:12.538Z,61.33
2023-03-29T01:54:24.229Z,60.54
2023-03-29T01:59:32.377Z,60.50
2023-03-29T02:04:39.625Z,60.97
2023-03-29T02:09:42.779Z,60.97
2023-03-29T02:14:45.160Z,60.91
2023-03-29T02:19:52.202Z,59.99
2023-03-29T02:24:59.355Z,60.52
2023-03-29T02:30:01.930Z,60.76
2023-03-29T02:35:15.985Z,60.54
2023-03-29T02:40:20.980Z,61.23
2023-03-29T02:45:25.364Z,61.71
2023-03-29T02:50:30.767Z,61.91
2023-03-29T02:55:34.978Z,62.04
2023-03-29T03:00:40.930Z,62.50
2023-03-29T03:05:43.601Z,63.71
2023-03-29T03:10:45.937Z,63.75
2023-03-29T03:15:49.357Z,64.29
2023-03-29T03:20:56.865Z,64.83
2023-03-29T03:25:59.235Z,65.13
2023-03-29T03:31:01.760Z,65.48
2023-03-29T03:36:06.251Z,65.53
2023-03-29T03:41:09.114Z,66.07
2023-03-29T03:46:11.361Z,66.59
2023-03-29T03:51:14.183Z,67.13
2023-03-29T03:56:16.466Z,66.83
2023-03-29T04:01:19.754Z,67.03
2023-03-29T04:06:22.677Z,66.62
2023-03-29T04:11:25.736Z,66.37
2023-03-29T04:16:28.626Z,65.93
2023-03-29T04:21:30.948Z,64.73
2023-03-29T04:26:34.385Z,64.89
2023-03-29T04:31:36.757Z,64.68
2023-03-29T04:36:39.195Z,66.62
2023-03-29T04:41:41.688Z,66.09
2023-03-29T04:46:43.934Z,67.14
2023-03-29T04:51:47.838Z,67.66
2023-03-29T04:56:52.254Z,65.54
2023-03-29T05:01:54.771Z,64.80
2023-03-29T05:06:57.495Z,64.71
2023-03-29T05:11:59.706Z,64.83
2023-03-29T05:17:01.904Z,61.78
2023-03-29T05:22:04.195Z,61.82
2023-03-29T05:27:06.469Z,60.74
2023-03-29T05:32:08.855Z,59.59
2023-03-29T05:37:11.147Z,58.05
2023-03-29T05:42:15.669Z,57.82
2023-03-29T05:47:17.924Z,54.56
2023-03-29T05:52:20.311Z,54.95
2023-03-29T05:57:23.266Z,52.77
2023-03-29T06:02:26.124Z,50.69
2023-03-29T06:07:28.365Z,50.14
2023-03-29T06:12:31.072Z,49.76
2023-03-29T06:17:33.947Z,49.33
2023-03-29T06:22:36.649Z,48.62
2023-03-29T06:27:38.785Z,47.67
2023-03-29T06:32:42.073Z,47.77
2023-03-29T06:37:50.074Z,46.82
2023-03-29T06:42:59.602Z,46.22
2023-03-29T06:48:03.311Z,44.77
2023-03-29T06:53:05.574Z,44.46
2023-03-29T06:58:09.285Z,43.91
2023-03-29T07:03:14.858Z,43.76
2023-03-29T07:08:17.250Z,43.92
2023-03-29T07:13:19.535Z,43.63
2023-03-29T07:18:21.903Z,43.09
2023-03-29T07:23:24.259Z,42.26
2023-03-29T07:28:26.400Z,41.72
2023-03-29T07:33:28.629Z,41.00
2023-03-29T07:38:32.493Z,40.95
2023-03-29T07:43:35.336Z,39.96
2023-03-29T07:48:37.499Z,38.39
2023-03-29T07:53:40.013Z,37.47
2023-03-29T07:58:42.258Z,36.79
2023-03-29T08:03:45.840Z,35.92
2023-03-29T08:08:48.165Z,35.64
2023-03-29T08:13:51.683Z,34.62
2023-03-29T08:18:53.974Z,34.71
2023-03-29T08:23:56.167Z,33.24
2023-03-29T08:28:58.367Z,31.20
2023-03-29T08:34:00.838Z,29.45
2023-03-29T08:39:03.525Z,25.97
2023-03-29T08:44:33.102Z,23.88
2023-03-29T08:49:38.110Z,21.41
2023-03-29T08:54:45.157Z,19.25
2023-03-29T08:59:54.187Z,19.63
2023-03-29T09:05:29.652Z,20.05
2023-03-29T09:10:43.802Z,20.10
2023-03-29T09:16:06.215Z,17.99
2023-03-29T09:21:08.483Z,21.86
2023-03-29T09:26:41.853Z,20.02
2023-03-29T09:31:44.913Z,18.92
2023-03-29T09:36:58.830Z,17.99
2023-03-29T09:42:05.556Z,20.36
2023-03-29T09:47:19.322Z,19.55
2023-03-29T09:52:21.703Z,18.19
2023-03-29T09:57:24.035Z,16.99
2023-03-29T10:02:31.616Z,14.53
2023-03-29T10:07:44.618Z,15.32
2023-03-29T10:12:54.059Z,16.12
2023-03-29T10:18:06.987Z,15.89
2023-03-29T10:23:18.292Z,15.89
2023-03-29T10:28:22.832Z,15.42
2023-03-29T10:33:30.088Z,16.20
2023-03-29T10:38:35.646Z,12.58
2023-03-29T10:43:58.610Z,13.06
2023-03-29T10:49:10.343Z,12.79
2023-03-29T10:54:16.159Z,11.71
2023-03-29T10:59:29.410Z,11.78
2023-03-29T11:04:52.723Z,12.58
2023-03-29T11:10:21.458Z,12.61
2023-03-29T11:15:47.058Z,12.02
2023-03-29T11:21:31.045Z,11.26
2023-03-29T11:26:54.217Z,13.89
2023-03-29T11:32:25.461Z,12.36
2023-03-29T11:38:05.733Z,12.10
2023-03-29T11:43:43.174Z,13.04
2023-03-29T11:48:53.080Z,15.01
2023-03-29T11:54:08.104Z,12.48
2023-03-29T11:59:25.522Z,11.80
2023-03-29T12:04:34.216Z,14.29
2023-03-29T12:09:36.663Z,16.70
2023-03-29T12:14:57.120Z,16.12
2023-03-29T12:20:15.258Z,13.65
2023-03-29T12:25:23.531Z,12.74
2023-03-29T12:31:03.994Z,17.38
2023-03-29T12:36:52.011Z,16.46
2023-03-29T12:42:04.696Z,14.41
2023-03-29T12:47:12.990Z,14.45
2023-03-29T12:52:27.145Z,16.58
2023-03-29T12:57:44.365Z,15.59
2023-03-29T13:03:19.977Z,17.08
2023-03-29T13:08:34.047Z,15.13
2023-03-29T13:13:38.222Z,15.28
2023-03-29T13:19:11.979Z,15.77
2023-03-29T13:24:16.840Z,18.06
2023-03-29T13:29:48.105Z,17.35
2023-03-29T13:35:01.936Z,17.97
2023-03-29T13:40:27.089Z,21.85
2023-03-29T13:45:32.543Z,25.07
2023-03-29T13:50:53.768Z,20.89
2023-03-29T13:55:58.566Z,19.23
2023-03-29T14:01:27.094Z,17.08
2023-03-29T14:06:36.712Z,18.98
2023-03-29T14:11:44.354Z,19.97
2023-03-29T14:16:46.856Z,19.44
2023-03-29T14:21:51.383Z,19.63
2023-03-29T14:26:55.423Z,21.58
2023-03-29T14:32:09.678Z,21.82
2023-03-29T14:37:15.810Z,25.44
2023-03-29T14:42:23.595Z,28.34
2023-03-29T14:47:30.970Z,29.20
2023-03-29T14:52:34.501Z,30.75
2023-03-29T14:57:37.933Z,31.21
2023-03-29T15:02:49.753Z,31.39
2023-03-29T15:07:56.042Z,32.47
2023-03-29T15:13:02.172Z,33.22
2023-03-29T15:18:07.498Z,32.46
2023-03-29T15:23:15.935Z,34.88
2023-03-29T15:28:55.558Z,35.20
2023-03-29T15:34:09.419Z,36.20
2023-03-29T15:39:17.151Z,36.64
2023-03-29T15:44:32.905Z,35.81
2023-03-29T15:49:35.105Z,35.40
2023-03-29T15:54:38.991Z,36.24
2023-03-29T15:59:42.068Z,36.79
2023-03-29T16:04:44.366Z,37.09
2023-03-29T16:09:47.227Z,36.98
2023-03-29T16:14:49.518Z,37.41
2023-03-29T16:19:51.809Z,37.38
2023-03-29T16:24:55.016Z,37.86
2023-03-29T16:29:58.877Z,37.66
2023-03-29T16:35:01.073Z,37.79
2023-03-29T16:40:07.322Z,37.58
2023-03-29T16:45:13.288Z,38.10
2023-03-29T16:50:18.961Z,38.80
2023-03-29T16:55:21.339Z,39.77
2023-03-29T17:00:24.029Z,39.80
2023-03-29T17:05:26.429Z,40.40
2023-03-29T17:10:28.624Z,40.60
2023-03-29T17:15:30.863Z,41.08
2023-03-29T17:20:33.107Z,41.14
2023-03-29T17:25:35.576Z,41.55
2023-03-29T17:30:38.073Z,42.00
2023-03-29T17:35:44.451Z,42.62
2023-03-29T17:40:55.340Z,43.07
2023-03-29T17:45:57.526Z,43.95
2023-03-29T17:50:59.867Z,44.30
2023-03-29T17:56:02.370Z,45.30
2023-03-29T18:01:09.357Z,46.40
2023-03-29T18:06:12.283Z,47.47
2023-03-29T18:11:22.645Z,48.05
2023-03-29T18:16:25.093Z,48.47
2023-03-29T18:21:30.309Z,48.96
2023-03-29T18:26:35.210Z,49.07
2023-03-29T18:31:37.458Z,49.71
2023-03-29T18:36:39.761Z,50.33
2023-03-29T18:41:42.089Z,50.53
2023-03-29T18:46:44.392Z,50.75
2023-03-29T18:51:49.686Z,51.07
2023-03-29T18:56:52.483Z,51.10
2023-03-29T19:01:54.980Z,51.70
2023-03-29T19:06:57.350Z,52.09
2023-03-29T19:11:59.746Z,52.18
2023-03-29T19:17:01.915Z,52.38
2023-03-29T19:22:04.247Z,52.97
2023-03-29T19:27:06.647Z,53.11
2023-03-29T19:32:09.016Z,53.15
2023-03-29T19:37:11.208Z,53.60
2023-03-29T19:42:13.496Z,53.63
2023-03-29T19:47:15.769Z,53.81
2023-03-29T19:52:17.957Z,53.71
2023-03-29T19:57:20.604Z,53.36
2023-03-29T20:02:23.526Z,53.67
2023-03-29T20:07:25.847Z,54.01
2023-03-29T20:12:28.036Z,52.99
2023-03-29T20:17:30.344Z,53.46
2023-03-29T20:22:32.821Z,53.63
2023-03-29T20:27:35.748Z,54.02
2023-03-29T20:32:38.439Z,53.99
2023-03-29T20:37:40.837Z,53.86
2023-03-29T20:42:46.244Z,54.22
2023-03-29T20:47:57.699Z,54.16
2023-03-29T20:53:03.870Z,53.62
2023-03-29T20:58:07.848Z,53.76
2023-03-29T21:03:10.126Z,53.73
2023-03-29T21:08:12.424Z,53.21
2023-03-29T21:13:14.586Z,53.42
2023-03-29T21:18:16.805Z,53.48
2023-03-29T21:23:19.026Z,53.87
2023-03-29T21:28:21.615Z,54.16
2023-03-29T21:33:23.839Z,54.58
2023-03-29T21:38:26.624Z,53.87
2023-03-29T21:43:29.197Z,54.71
2023-03-29T21:48:31.814Z,55.56
2023-03-29T21:53:34.592Z,55.45
2023-03-29T21:58:38.569Z,56.00
2023-03-29T22:03:40.752Z,56.29
2023-03-29T22:08:42.877Z,55.97
2023-03-29T22:13:47.039Z,56.58
2023-03-29T22:18:50.162Z,56.92
2023-03-29T22:23:55.026Z,56.79
2023-03-29T22:28:59.075Z,56.87
2023-03-29T22:34:02.817Z,57.04
2023-03-29T22:39:06.671Z,57.16
2023-03-29T22:44:10.470Z,57.25
2023-03-29T22:49:13.304Z,57.52
2023-03-29T22:54:16.720Z,57.54
2023-03-29T22:59:19.064Z,58.07
2023-03-29T23:04:21.453Z,58.17
2023-03-29T23:09:23.773Z,58.40
2023-03-29T23:14:26.010Z,58.80
2023-03-29T23:19:28.158Z,58.72
2023-03-29T23:24:30.474Z,58.98
2023-03-29T23:29:36.600Z,59.04
2023-03-29T23:34:39.602Z,59.19
2023-03-29T23:39:41.813Z,59.61
2023-03-29T23:44:44.071Z,60.28
2023-03-29T23:49:46.884Z,60.12
2023-03-29T23:54:50.474Z,59.71
2023-03-29T23:59:55.860Z,59.17
